createdAt,value
2022-09-03T00:02:28.469Z,69.10
2022-09-03T00:05:14.969Z,69.40
2022-09-03T00:07:57.503Z,69.40
2022-09-03T00:10:36.810Z,70.20
2022-09-03T00:13:08.012Z,70.30
2022-09-03T00:15:36.391Z,70.30
2022-09-03T00:18:17.227Z,70.10
2022-09-03T00:20:52.851Z,70.10
2022-09-03T00:23:23.466Z,70.00
2022-09-03T00:26:12.790Z,69.90
2022-09-03T00:28:46.239Z,69.90
2022-09-03T00:31:30.792Z,69.80
2022-09-03T00:34:03.788Z,69.90
2022-09-03T00:36:43.495Z,70.60
2022-09-03T00:39:13.388Z,70.20
2022-09-03T00:42:14.094Z,70.10
2022-09-03T00:45:08.982Z,70.10
2022-09-03T00:47:50.633Z,70.00
2022-09-03T00:51:00.954Z,70.00
2022-09-03T00:53:56.539Z,70.20
2022-09-03T00:56:44.451Z,70.60
2022-09-03T00:59:41.394Z,70.80
2022-09-03T01:02:28.909Z,70.90
2022-09-03T01:05:36.116Z,70.90
2022-09-03T01:08:24.918Z,70.90
2022-09-03T01:11:01.499Z,70.80
2022-09-03T01:13:39.535Z,70.80
2022-09-03T01:16:32.311Z,70.50
2022-09-03T01:19:11.868Z,70.50
2022-09-03T01:22:27.067Z,70.50
2022-09-03T01:25:17.735Z,70.70
2022-09-03T01:28:10.261Z,70.50
2022-09-03T01:30:42.761Z,70.30
2022-09-03T01:33:10.038Z,70.20
2022-09-03T01:35:59.237Z,70.30
2022-09-03T01:38:50.398Z,70.30
2022-09-03T01:41:46.122Z,70.30
2022-09-03T01:44:25.413Z,70.30
2022-09-03T01:47:08.879Z,70.20
2022-09-03T01:49:46.023Z,70.20
2022-09-03T01:52:20.818Z,70.10
2022-09-03T01:54:59.742Z,70.20
2022-09-03T01:57:52.849Z,70.40
2022-09-03T02:00:20.906Z,70.30
2022-09-03T02:02:53.768Z,70.40
2022-09-03T02:05:27.337Z,70.60
2022-09-03T02:08:01.726Z,70.50
2022-09-03T02:10:43.040Z,70.80
2022-09-03T02:13:15.702Z,70.80
2022-09-03T02:15:46.478Z,71.20
2022-09-03T02:18:18.796Z,71.20
2022-09-03T02:20:48.145Z,70.80
2022-09-03T02:23:16.680Z,70.90
2022-09-03T02:25:48.407Z,70.80
2022-09-03T02:28:17.711Z,70.70
2022-09-03T02:30:45.698Z,70.50
2022-09-03T02:33:13.293Z,70.50
2022-09-03T02:35:41.680Z,70.40
2022-09-03T02:38:14.677Z,70.30
2022-09-03T02:40:41.963Z,70.10
2022-09-03T02:43:38.714Z,70.00
2022-09-03T02:46:10.124Z,70.00
2022-09-03T02:48:37.587Z,69.80
2022-09-03T02:51:13.714Z,69.90
2022-09-03T02:53:42.959Z,69.80
2022-09-03T02:56:10.814Z,69.80
2022-09-03T02:58:38.762Z,69.70
2022-09-03T03:01:06.347Z,70.10
2022-09-03T03:03:33.940Z,70.50
2022-09-03T03:06:04.815Z,70.40
2022-09-03T03:08:34.104Z,70.50
2022-09-03T03:11:02.137Z,70.30
2022-09-03T03:13:30.862Z,70.30
2022-09-03T03:16:06.302Z,70.10
2022-09-03T03:18:35.051Z,70.00
2022-09-03T03:21:14.122Z,69.90
2022-09-03T03:23:41.988Z,69.90
2022-09-03T03:26:12.871Z,70.00
2022-09-03T03:28:42.407Z,69.90
2022-09-03T03:31:15.305Z,69.90
2022-09-03T03:33:43.008Z,69.90
2022-09-03T03:36:15.567Z,70.00
2022-09-03T03:38:44.430Z,69.90
2022-09-03T03:41:24.188Z,69.90
2022-09-03T03:43:55.933Z,69.80
2022-09-03T03:46:24.893Z,69.80
2022-09-03T03:48:52.824Z,70.30
2022-09-03T03:51:20.561Z,70.40
2022-09-03T03:53:48.013Z,70.50
2022-09-03T03:56:16.558Z,70.70
2022-09-03T03:58:44.371Z,71.00
2022-09-03T04:01:14.816Z,71.20
2022-09-03T04:03:42.979Z,71.10
2022-09-03T04:06:12.477Z,71.10
2022-09-03T04:08:42.299Z,71.10
2022-09-03T04:11:12.052Z,71.10
2022-09-03T04:13:41.653Z,70.90
2022-09-03T04:16:14.096Z,71.00
2022-09-03T04:18:42.148Z,71.00
2022-09-03T04:21:12.425Z,70.80
2022-09-03T04:23:41.849Z,70.60
2022-09-03T04:26:11.188Z,70.30
2022-09-03T04:28:38.577Z,70.20
2022-09-03T04:31:08.059Z,70.00
2022-09-03T04:33:38.296Z,69.80
2022-09-03T04:36:10.101Z,69.90
2022-09-03T04:38:40.120Z,70.40
2022-09-03T04:41:09.512Z,70.30
2022-09-03T04:43:36.885Z,70.40
2022-09-03T04:46:07.062Z,70.30
2022-09-03T04:48:37.794Z,70.00
2022-09-03T04:51:06.790Z,70.10
2022-09-03T04:53:40.445Z,69.90
2022-09-03T04:56:22.438Z,69.90
2022-09-03T04:58:55.602Z,69.70
2022-09-03T05:01:25.258Z,69.40
2022-09-03T05:03:52.618Z,69.20
2022-09-03T05:06:20.465Z,69.00
2022-09-03T05:08:52.907Z,69.00
2022-09-03T05:11:22.697Z,68.90
2022-09-03T05:13:51.464Z,68.70
2022-09-03T05:16:19.475Z,68.70
2022-09-03T05:18:48.093Z,68.70
2022-09-03T05:21:18.450Z,69.00
2022-09-03T05:23:48.176Z,68.90
2022-09-03T05:26:18.750Z,68.90
2022-09-03T05:28:46.819Z,69.00
2022-09-03T05:31:17.482Z,69.00
2022-09-03T05:33:51.987Z,68.90
2022-09-03T05:36:23.853Z,69.00
2022-09-03T05:38:54.285Z,69.10
2022-09-03T05:41:22.933Z,69.10
2022-09-03T05:43:55.996Z,69.10
2022-09-03T05:46:31.817Z,69.10
2022-09-03T05:49:05.001Z,69.30
2022-09-03T05:51:33.954Z,69.70
2022-09-03T05:54:02.828Z,69.80
2022-09-03T05:56:32.154Z,69.60
2022-09-03T05:59:02.033Z,69.60
2022-09-03T06:01:32.533Z,69.40
2022-09-03T06:04:02.656Z,69.40
2022-09-03T06:06:31.884Z,69.60
2022-09-03T06:09:23.827Z,69.70
2022-09-03T06:11:52.444Z,69.70
2022-09-03T06:14:20.810Z,69.90
2022-09-03T06:16:49.786Z,70.00
2022-09-03T06:19:17.463Z,70.10
2022-09-03T06:21:46.015Z,70.00
2022-09-03T06:24:19.151Z,70.30
2022-09-03T06:26:48.127Z,70.40
2022-09-03T06:29:15.728Z,70.30
2022-09-03T06:31:43.083Z,70.40
2022-09-03T06:34:10.493Z,70.40
2022-09-03T06:36:41.355Z,70.40
2022-09-03T06:39:08.856Z,70.60
2022-09-03T06:41:36.230Z,70.70
2022-09-03T06:44:06.423Z,70.80
2022-09-03T06:46:38.930Z,70.80
2022-09-03T06:49:06.919Z,70.80
2022-09-03T06:51:34.645Z,71.00
2022-09-03T06:54:04.841Z,71.20
2022-09-03T06:56:38.800Z,71.10
2022-09-03T06:59:16.260Z,71.20
2022-09-03T07:01:46.335Z,70.60
2022-09-03T07:04:17.007Z,71.20
2022-09-03T07:06:47.323Z,71.90
2022-09-03T07:09:15.913Z,71.90
2022-09-03T07:11:48.133Z,72.20
2022-09-03T07:14:18.807Z,72.00
2022-09-03T07:16:47.211Z,71.90
2022-09-03T07:19:14.917Z,72.50
2022-09-03T07:21:48.868Z,72.50
2022-09-03T07:24:18.327Z,72.40
2022-09-03T07:26:47.132Z,73.20
2022-09-03T07:29:16.024Z,72.30
2022-09-03T07:31:44.040Z,71.90
2022-09-03T07:34:13.384Z,71.40
2022-09-03T07:36:43.834Z,71.50
2022-09-03T07:39:12.522Z,72.70
2022-09-03T07:41:43.502Z,74.10
2022-09-03T07:44:10.939Z,74.80
2022-09-03T07:46:38.913Z,74.90
2022-09-03T07:49:06.956Z,74.50
2022-09-03T07:51:37.080Z,74.60
2022-09-03T07:54:07.743Z,75.30
2022-09-03T07:56:35.987Z,76.50
2022-09-03T07:59:05.407Z,77.20
2022-09-03T08:01:34.357Z,77.50
2022-09-03T08:04:04.252Z,77.50
2022-09-03T08:06:34.149Z,76.90
2022-09-03T08:09:05.544Z,76.30
2022-09-03T08:11:36.892Z,76.20
2022-09-03T08:14:07.047Z,77.00
2022-09-03T08:16:37.017Z,77.20
2022-09-03T08:19:05.350Z,77.40
2022-09-03T08:21:33.102Z,76.70
2022-09-03T08:24:02.958Z,77.50
2022-09-03T08:26:33.497Z,76.90
2022-09-03T08:29:01.219Z,76.60
2022-09-03T08:31:29.450Z,77.60
2022-09-03T08:33:59.015Z,78.20
2022-09-03T08:36:30.135Z,77.20
2022-09-03T08:39:04.108Z,77.00
2022-09-03T08:41:44.003Z,76.80
2022-09-03T08:44:40.967Z,77.40
2022-09-03T08:47:20.790Z,76.40
2022-09-03T08:50:07.662Z,77.80
2022-09-03T08:52:40.820Z,77.50
2022-09-03T08:55:28.990Z,77.20
2022-09-03T08:58:15.795Z,77.40
2022-09-03T09:01:01.470Z,77.00
2022-09-03T09:03:47.800Z,77.30
2022-09-03T09:06:26.977Z,77.20
2022-09-03T09:09:12.411Z,77.30
2022-09-03T09:11:57.725Z,77.40
2022-09-03T09:14:59.368Z,77.10
2022-09-03T09:17:38.623Z,77.20
2022-09-03T09:20:14.897Z,77.20
2022-09-03T09:22:47.419Z,77.50
2022-09-03T09:25:23.275Z,77.60
2022-09-03T09:28:00.883Z,77.70
2022-09-03T09:30:32.871Z,77.40
2022-09-03T09:33:00.843Z,77.50
2022-09-03T09:35:28.210Z,77.30
2022-09-03T09:37:58.406Z,77.40
2022-09-03T09:40:33.918Z,77.20
2022-09-03T09:43:11.103Z,77.70
2022-09-03T09:45:40.908Z,78.30
2022-09-03T09:48:17.829Z,78.00
2022-09-03T09:50:45.802Z,77.30
2022-09-03T09:53:17.971Z,77.50
2022-09-03T09:55:52.487Z,77.70
2022-09-03T09:58:23.626Z,78.00
2022-09-03T10:01:05.365Z,78.10
2022-09-03T10:03:35.743Z,78.00
2022-09-03T10:06:30.145Z,78.30
2022-09-03T10:09:12.291Z,78.10
2022-09-03T10:11:45.247Z,78.30
2022-09-03T10:14:32.701Z,78.30
2022-09-03T10:17:10.720Z,78.10
2022-09-03T10:20:08.086Z,77.80
2022-09-03T10:22:56.600Z,78.20
2022-09-03T10:25:29.005Z,77.90
2022-09-03T10:27:59.797Z,78.00
2022-09-03T10:30:29.538Z,77.80
2022-09-03T10:33:16.321Z,78.90
2022-09-03T10:36:01.067Z,79.70
2022-09-03T10:38:33.090Z,79.10
2022-09-03T10:41:17.131Z,79.00
2022-09-03T10:44:26.861Z,78.40
2022-09-03T10:47:29.449Z,78.10
2022-09-03T10:50:16.738Z,78.50
2022-09-03T10:53:05.375Z,78.10
2022-09-03T10:56:02.211Z,78.30
2022-09-03T10:58:32.236Z,78.20
2022-09-03T11:01:30.959Z,78.30
2022-09-03T11:04:19.949Z,78.20
2022-09-03T11:06:54.894Z,78.00
2022-09-03T11:09:56.870Z,78.80
2022-09-03T11:12:31.364Z,78.40
2022-09-03T11:15:33.885Z,78.60
2022-09-03T11:18:12.948Z,78.40
2022-09-03T11:20:42.361Z,78.10
2022-09-03T11:23:13.385Z,78.30
2022-09-03T11:26:01.366Z,78.50
2022-09-03T11:28:49.113Z,77.20
2022-09-03T11:31:22.720Z,78.00
2022-09-03T11:33:56.084Z,77.00
2022-09-03T11:36:30.742Z,77.40
2022-09-03T11:38:58.102Z,76.80
2022-09-03T11:41:27.720Z,77.20
2022-09-03T11:43:55.509Z,77.40
2022-09-03T11:46:22.865Z,77.70
2022-09-03T11:48:52.714Z,77.40
2022-09-03T11:51:32.299Z,76.90
2022-09-03T11:54:23.901Z,77.50
2022-09-03T11:56:52.037Z,77.00
2022-09-03T11:59:24.279Z,76.70
2022-09-03T12:01:56.526Z,77.00
2022-09-03T12:04:34.678Z,77.10
2022-09-03T12:07:20.842Z,77.60
2022-09-03T12:10:12.255Z,79.70
2022-09-03T12:13:08.282Z,78.30
2022-09-03T12:15:47.541Z,77.20
2022-09-03T12:18:30.999Z,76.90
2022-09-03T12:21:00.984Z,77.00
2022-09-03T12:23:42.462Z,77.20
2022-09-03T12:26:15.064Z,77.10
2022-09-03T12:28:45.541Z,77.30
2022-09-03T12:31:30.866Z,77.40
2022-09-03T12:34:02.240Z,78.20
2022-09-03T12:36:44.472Z,77.50
2022-09-03T12:39:19.032Z,77.50
2022-09-03T12:42:03.837Z,77.50
2022-09-03T12:44:32.919Z,77.60
2022-09-03T12:50:25.161Z,77.70
2022-09-03T12:52:56.712Z,77.70
2022-09-03T12:55:30.236Z,77.70
2022-09-03T12:58:17.749Z,77.60
2022-09-03T13:00:56.512Z,77.50
2022-09-03T13:03:44.503Z,77.30
2022-09-03T13:06:19.299Z,76.90
2022-09-03T13:08:51.617Z,76.90
2022-09-03T13:11:21.936Z,76.70
2022-09-03T13:14:02.551Z,76.80
2022-09-03T13:16:44.980Z,77.00
2022-09-03T13:19:31.348Z,77.10
2022-09-03T13:22:13.756Z,77.20
2022-09-03T13:24:44.113Z,77.10
2022-09-03T13:27:20.003Z,77.90
2022-09-03T13:30:08.952Z,78.20
2022-09-03T13:32:50.755Z,78.50
2022-09-03T13:35:27.548Z,79.10
2022-09-03T13:38:06.670Z,81.60
2022-09-03T13:40:52.368Z,81.90
2022-09-03T13:43:45.516Z,83.00
2022-09-03T13:46:30.227Z,83.20
2022-09-03T13:49:25.024Z,83.40
2022-09-03T13:51:59.403Z,84.00
2022-09-03T13:54:54.795Z,84.50
2022-09-03T13:57:28.352Z,84.50
2022-09-03T13:59:58.838Z,85.10
2022-09-03T14:02:51.396Z,85.30
2022-09-03T14:05:47.787Z,85.60
2022-09-03T14:08:34.658Z,85.50
2022-09-03T14:11:40.729Z,86.00
2022-09-03T14:14:11.063Z,86.10
2022-09-03T14:16:47.792Z,86.30
2022-09-03T14:19:33.331Z,86.40
2022-09-03T14:22:11.873Z,86.50
2022-09-03T14:25:02.826Z,86.80
2022-09-03T14:27:32.238Z,86.70
2022-09-03T14:30:17.803Z,86.70
2022-09-03T14:33:24.401Z,86.80
2022-09-03T14:36:25.807Z,87.00
2022-09-03T14:39:07.647Z,87.10
2022-09-03T14:41:59.787Z,87.20
2022-09-03T14:44:29.859Z,87.10
2022-09-03T14:47:00.299Z,87.20
2022-09-03T14:50:06.446Z,87.20
2022-09-03T14:52:59.685Z,87.10
2022-09-03T14:55:30.064Z,87.00
2022-09-03T14:58:03.185Z,87.10
2022-09-03T15:00:56.170Z,87.00
2022-09-03T15:03:32.248Z,87.20
2022-09-03T15:06:28.083Z,87.30
2022-09-03T15:09:28.473Z,87.20
2022-09-03T15:12:07.831Z,87.50
2022-09-03T15:14:42.012Z,87.70
2022-09-03T15:17:35.394Z,87.80
2022-09-03T15:20:24.357Z,87.80
2022-09-03T15:22:58.209Z,86.70
2022-09-03T15:25:50.986Z,87.50
2022-09-03T15:28:54.232Z,87.50
2022-09-03T15:31:44.199Z,87.20
2022-09-03T15:34:59.324Z,84.60
2022-09-03T15:37:32.515Z,86.50
2022-09-03T15:40:29.484Z,86.90
2022-09-03T15:43:21.952Z,87.10
2022-09-03T15:45:49.296Z,86.90
2022-09-03T15:48:28.523Z,86.90
2022-09-03T15:51:10.055Z,87.00
2022-09-03T15:53:46.131Z,87.10
2022-09-03T15:56:23.780Z,87.10
2022-09-03T15:58:53.965Z,87.20
2022-09-03T16:01:41.519Z,87.20
2022-09-03T16:04:17.597Z,87.20
2022-09-03T16:07:14.901Z,87.10
2022-09-03T16:10:30.508Z,87.10
2022-09-03T16:13:19.165Z,86.90
2022-09-03T16:16:12.215Z,86.70
2022-09-03T16:18:49.697Z,86.60
2022-09-03T16:21:59.479Z,86.30
2022-09-03T16:24:34.924Z,86.30
2022-09-03T16:27:14.919Z,86.70
2022-09-03T16:29:42.307Z,86.70
2022-09-03T16:32:33.632Z,86.70
2022-09-03T16:35:27.819Z,86.70
2022-09-03T16:38:14.134Z,86.50
2022-09-03T16:40:41.363Z,86.40
2022-09-03T16:43:39.642Z,86.20
2022-09-03T16:46:14.358Z,86.10
2022-09-03T16:48:54.213Z,86.00
2022-09-03T16:51:44.511Z,85.90
2022-09-03T16:54:20.667Z,85.70
2022-09-03T16:57:21.225Z,85.50
2022-09-03T17:00:13.139Z,85.50
2022-09-03T17:03:12.070Z,85.30
2022-09-03T17:06:15.932Z,85.20
2022-09-03T17:09:07.837Z,85.60
2022-09-03T17:11:49.735Z,85.50
2022-09-03T17:14:26.435Z,85.80
2022-09-03T17:17:23.638Z,85.70
2022-09-03T17:19:53.654Z,86.10
2022-09-03T17:22:39.554Z,86.40
2022-09-03T17:25:34.862Z,86.60
2022-09-03T17:28:24.868Z,86.70
2022-09-03T17:31:04.720Z,86.90
2022-09-03T17:34:05.645Z,87.20
2022-09-03T17:36:38.094Z,87.10
2022-09-03T17:39:23.888Z,86.90
2022-09-03T17:42:01.580Z,86.90
2022-09-03T17:44:51.436Z,87.60
2022-09-03T17:47:51.456Z,86.90
2022-09-03T17:50:25.228Z,86.90
2022-09-03T17:53:12.148Z,86.90
2022-09-03T17:55:45.882Z,86.90
2022-09-03T17:58:32.893Z,86.50
2022-09-03T18:01:13.916Z,86.20
2022-09-03T18:03:44.252Z,84.90
2022-09-03T18:06:40.005Z,80.60
2022-09-03T18:09:20.084Z,83.40
2022-09-03T18:12:08.044Z,85.50
2022-09-03T18:14:49.202Z,86.20
2022-09-03T18:17:32.760Z,86.00
2022-09-03T18:20:30.319Z,86.00
2022-09-03T18:23:26.089Z,85.70
2022-09-03T18:26:20.730Z,85.70
2022-09-03T18:29:18.444Z,85.70
2022-09-03T18:32:04.707Z,85.50
2022-09-03T18:34:53.419Z,85.30
2022-09-03T18:37:41.683Z,85.30
2022-09-03T18:40:32.871Z,85.30
2022-09-03T18:43:37.069Z,85.10
2022-09-03T18:47:54.387Z,85.10
2022-09-03T18:50:01.839Z,85.10
2022-09-03T18:53:14.994Z,85.00
2022-09-03T18:56:18.469Z,84.90
2022-09-03T18:59:13.124Z,84.70
2022-09-03T19:02:00.699Z,84.60
2022-09-03T19:05:05.731Z,84.40
2022-09-03T19:08:01.396Z,84.30
2022-09-03T19:11:13.911Z,84.70
2022-09-03T19:14:01.110Z,84.50
2022-09-03T19:16:59.369Z,84.40
2022-09-03T19:19:54.587Z,84.40
2022-09-03T19:22:57.000Z,84.30
2022-09-03T19:25:45.014Z,84.20
2022-09-03T19:28:39.928Z,84.00
2022-09-03T19:31:51.217Z,83.90
2022-09-03T19:35:04.376Z,83.70
2022-09-03T19:38:03.835Z,83.60
2022-09-03T19:41:23.940Z,83.40
2022-09-03T19:44:31.741Z,83.30
2022-09-03T19:47:21.240Z,83.10
2022-09-03T19:50:22.281Z,83.20
2022-09-03T19:53:11.584Z,83.10
2022-09-03T19:56:11.725Z,83.10
2022-09-03T19:59:08.387Z,82.90
2022-09-03T20:01:56.233Z,83.00
2022-09-03T20:05:10.424Z,83.10
2022-09-03T20:07:57.632Z,83.20
2022-09-03T20:10:25.634Z,84.10
2022-09-03T20:13:05.517Z,83.30
2022-09-03T20:15:37.818Z,83.10
2022-09-03T20:18:25.415Z,83.10
2022-09-03T20:20:58.768Z,83.00
2022-09-03T20:24:06.664Z,82.60
2022-09-03T20:26:50.692Z,82.30
2022-09-03T20:29:21.245Z,82.10
2022-09-03T20:32:13.240Z,82.20
2022-09-03T20:34:53.021Z,82.40
2022-09-03T20:37:42.266Z,82.10
2022-09-03T20:40:45.504Z,81.70
2022-09-03T20:43:24.622Z,81.50
2022-09-03T20:46:39.923Z,81.20
2022-09-03T20:49:13.073Z,81.00
2022-09-03T20:51:53.236Z,80.80
2022-09-03T20:54:31.862Z,80.60
2022-09-03T20:57:19.015Z,80.50
2022-09-03T21:00:13.993Z,80.40
2022-09-03T21:02:48.612Z,80.30
2022-09-03T21:05:41.829Z,80.20
2022-09-03T21:08:32.318Z,80.20
2022-09-03T21:11:08.033Z,80.00
2022-09-03T21:14:07.839Z,79.80
2022-09-03T21:16:50.045Z,79.80
2022-09-03T21:19:27.011Z,79.70
2022-09-03T21:22:19.007Z,79.70
2022-09-03T21:25:00.679Z,79.50
2022-09-03T21:27:39.771Z,79.40
2022-09-03T21:30:15.539Z,79.20
2022-09-03T21:33:07.601Z,79.40
2022-09-03T21:35:40.200Z,79.70
2022-09-03T21:38:12.832Z,79.90
2022-09-03T21:41:05.679Z,80.00
2022-09-03T21:43:40.418Z,80.30
2022-09-03T21:46:15.422Z,80.40
2022-09-03T21:48:57.397Z,80.30
2022-09-03T21:51:24.654Z,80.30
2022-09-03T21:54:01.123Z,80.20
2022-09-03T21:56:49.039Z,80.10
2022-09-03T21:59:46.937Z,80.10
2022-09-03T22:02:23.152Z,79.80
2022-09-03T22:04:51.070Z,79.70
2022-09-03T22:07:54.947Z,79.60
2022-09-03T22:10:31.923Z,79.40
2022-09-03T22:13:09.359Z,79.00
2022-09-03T22:15:38.078Z,79.00
2022-09-03T22:18:29.613Z,78.60
2022-09-03T22:21:13.331Z,78.80
2022-09-03T22:24:07.134Z,78.50
2022-09-03T22:27:06.840Z,78.20
2022-09-03T22:29:51.120Z,78.30
2022-09-03T22:32:33.750Z,78.20
2022-09-03T22:35:47.034Z,78.10
2022-09-03T22:38:32.635Z,78.90
2022-09-03T22:41:20.147Z,79.00
2022-09-03T22:44:00.693Z,78.80
2022-09-03T22:46:39.893Z,78.60
2022-09-03T22:49:23.630Z,78.60
2022-09-03T22:52:13.903Z,78.40
2022-09-03T22:54:50.553Z,78.30
2022-09-03T22:57:19.509Z,78.20
2022-09-03T23:00:01.209Z,78.20
2022-09-03T23:02:30.168Z,78.10
2022-09-03T23:05:08.228Z,77.90
2022-09-03T23:07:47.537Z,77.60
2022-09-03T23:10:26.200Z,77.50
2022-09-03T23:12:59.600Z,77.30
2022-09-03T23:15:30.508Z,77.10
2022-09-03T23:18:09.037Z,76.90
2022-09-03T23:20:40.912Z,75.80
2022-09-03T23:23:33.580Z,75.70
2022-09-03T23:26:16.470Z,75.20
2022-09-03T23:28:52.840Z,75.40
2022-09-03T23:31:23.858Z,75.40
2022-09-03T23:33:53.847Z,74.80
2022-09-03T23:37:16.032Z,76.10
2022-09-03T23:40:10.393Z,75.80
2022-09-03T23:42:48.117Z,75.60
2022-09-03T23:45:53.786Z,75.90
2022-09-03T23:48:27.484Z,76.60
2022-09-03T23:50:57.556Z,76.70
2022-09-03T23:53:49.765Z,76.60
2022-09-03T23:56:34.996Z,76.70
2022-09-03T23:59:21.157Z,76.90
